Alpine, Kentucky
Current Conditions -  °F | °C
As of 3:35 PM on Saturday 20 Dec 2014 (Local Time) from KSME Reporting Station
Overcast Overcast  
Wind Chill:   Ceiling: 5000
Heat Index:   Visibility: 10mi
Dew Point: -3°   Wind: 3mph
Humidity: 65%   Direction: 210°SSW
Pressure: 30.23"   Gusts: NA
Location:  36.938°N, 84.5342°W
Report Text: KSME 202035Z AUTO 21003KT 10SM OVC050 03/M03 A3023 RMK AO2
Loading
Personal Weather Stations






























Interactive Weather Map New forecast layout! Learn more

10-Day Weather Forecast

Advertisements
Track Severe Weather on mobile